Terminal Aerodrome Forecast
Issued by NWS Spokane, WA

Home | Current Version | Previous Version | Text Only | Print | Product List | Glossary On
Versions: 1 2 3 4 5 6 7 8 9 10 11 12 13 14 15 16 17 18 19 20 21 22 23 24 25
000
FTUS46 KOTX 042059 AAA
TAFGEG
TAF AMD
KGEG 042059Z 0421/0518 25010G19KT P6SM FEW050 FEW150
     FM050100 28010KT P6SM FEW060 FEW150
     FM050300 34010G18KT P6SM SCT090
     FM050700 35005KT P6SM SCT090 BKN200
     FM051500 02012G19KT P6SM FEW090 FEW200=

USA.gov is the U.S. government's official web portal to all federal, state and local government web resources and services.